createdAt,value
2023-01-25T00:04:46.442Z,2.93
2023-01-25T00:09:48.071Z,2.93
2023-01-25T00:14:49.795Z,3.09
2023-01-25T00:19:51.359Z,2.91
2023-01-25T00:24:52.936Z,2.79
2023-01-25T00:29:54.534Z,2.79
2023-01-25T00:34:56.100Z,2.79
2023-01-25T00:39:57.687Z,2.96
2023-01-25T00:44:59.279Z,2.88
2023-01-25T00:50:00.975Z,2.92
2023-01-25T00:55:02.978Z,2.88
2023-01-25T01:00:05.315Z,3.02
2023-01-25T01:05:07.754Z,2.93
2023-01-25T01:10:10.210Z,2.98
2023-01-25T01:15:12.015Z,3.09
2023-01-25T01:20:13.830Z,2.89
2023-01-25T01:25:15.437Z,2.78
2023-01-25T01:30:17.159Z,2.93
2023-01-25T01:35:18.756Z,3.07
2023-01-25T01:40:20.384Z,3.08
2023-01-25T01:46:01.030Z,2.94
2023-01-25T01:51:33.688Z,3.03
2023-01-25T01:56:59.381Z,2.99
2023-01-25T02:02:02.468Z,2.91
2023-01-25T02:07:27.275Z,3.09
2023-01-25T02:12:32.334Z,3.01
2023-01-25T02:17:37.465Z,3.14
2023-01-25T02:22:50.937Z,3.16
2023-01-25T02:28:30.472Z,2.70
2023-01-25T02:33:32.163Z,2.75
2023-01-25T02:38:37.179Z,2.68
2023-01-25T02:43:38.940Z,2.70
2023-01-25T02:48:40.570Z,2.76
2023-01-25T02:53:42.154Z,2.74
2023-01-25T02:58:44.377Z,2.69
2023-01-25T03:03:46.016Z,2.72
2023-01-25T03:08:47.982Z,2.69
2023-01-25T03:13:50.111Z,2.72
2023-01-25T03:18:54.404Z,2.68
2023-01-25T03:24:01.690Z,2.60
2023-01-25T03:29:10.544Z,2.45
2023-01-25T03:34:15.140Z,2.48
2023-01-25T03:39:18.248Z,2.59
2023-01-25T03:44:19.919Z,2.55
2023-01-25T03:49:22.226Z,2.60
2023-01-25T03:54:23.985Z,2.62
2023-01-25T03:59:25.781Z,2.70
2023-01-25T04:04:29.836Z,2.58
2023-01-25T04:09:32.018Z,2.45
2023-01-25T04:14:43.999Z,2.41
2023-01-25T04:19:51.270Z,2.29
2023-01-25T04:24:55.852Z,2.47
2023-01-25T04:29:58.025Z,2.62
2023-01-25T04:35:01.372Z,2.59
2023-01-25T04:40:05.612Z,2.69
2023-01-25T04:45:12.339Z,2.66
2023-01-25T04:50:14.446Z,2.71
2023-01-25T04:55:16.982Z,2.69
2023-01-25T05:00:20.046Z,2.52
2023-01-25T05:05:29.086Z,2.52
2023-01-25T05:10:30.910Z,2.63
2023-01-25T05:16:01.609Z,2.63
2023-01-25T05:21:03.420Z,2.55
2023-01-25T05:26:05.320Z,2.59
2023-01-25T05:31:07.543Z,2.52
2023-01-25T05:36:10.288Z,2.55
2023-01-25T05:41:13.088Z,2.38
2023-01-25T05:46:15.062Z,2.18
2023-01-25T05:51:16.863Z,2.19
2023-01-25T05:56:18.652Z,2.31
2023-01-25T06:01:20.886Z,2.02
2023-01-25T06:06:28.272Z,2.24
2023-01-25T06:11:29.907Z,2.08
2023-01-25T06:16:32.720Z,2.19
2023-01-25T06:21:57.099Z,2.15
2023-01-25T06:26:59.352Z,1.99
2023-01-25T06:32:00.959Z,2.07
2023-01-25T06:37:02.519Z,1.97
2023-01-25T06:42:04.246Z,1.94
2023-01-25T06:47:08.798Z,2.07
2023-01-25T06:52:10.344Z,1.91
2023-01-25T06:57:12.077Z,2.06
2023-01-25T07:02:16.482Z,2.08
2023-01-25T07:07:18.109Z,1.96
2023-01-25T07:12:19.759Z,2.22
2023-01-25T07:17:21.553Z,2.25
2023-01-25T07:22:23.112Z,2.18
2023-01-25T07:27:24.769Z,2.14
2023-01-25T07:32:26.284Z,2.11
2023-01-25T07:37:27.898Z,2.19
2023-01-25T07:42:29.460Z,2.20
2023-01-25T07:47:46.664Z,2.17
2023-01-25T07:52:48.352Z,2.44
2023-01-25T07:57:54.572Z,2.32
2023-01-25T08:02:56.177Z,2.30
2023-01-25T08:07:57.752Z,2.33
2023-01-25T08:12:59.471Z,2.35
2023-01-25T08:18:01.449Z,2.40
2023-01-25T08:23:03.121Z,2.26
2023-01-25T08:28:05.280Z,2.32
2023-01-25T08:33:06.912Z,2.35
2023-01-25T08:38:08.513Z,2.33
2023-01-25T08:43:10.301Z,2.28
2023-01-25T08:48:12.044Z,2.28
2023-01-25T08:53:13.617Z,2.38
2023-01-25T08:58:17.139Z,2.16
2023-01-25T09:03:18.816Z,2.34
2023-01-25T09:08:21.516Z,2.37
2023-01-25T09:13:23.031Z,2.35
2023-01-25T09:18:24.843Z,2.29
2023-01-25T09:23:26.658Z,2.31
2023-01-25T09:28:29.829Z,2.43
2023-01-25T09:33:34.697Z,2.51
2023-01-25T09:38:36.508Z,2.42
2023-01-25T09:43:44.695Z,2.54
2023-01-25T09:49:08.375Z,2.48
2023-01-25T09:54:11.948Z,2.34
2023-01-25T09:59:17.460Z,2.28
2023-01-25T10:04:28.418Z,2.21
2023-01-25T10:10:04.534Z,2.45
2023-01-25T10:15:24.550Z,2.46
2023-01-25T10:20:37.139Z,2.33
2023-01-25T10:26:01.451Z,2.66
2023-01-25T10:31:28.811Z,2.58
2023-01-25T10:36:31.135Z,2.66
2023-01-25T10:41:42.933Z,2.60
2023-01-25T10:46:51.884Z,2.52
2023-01-25T10:51:53.625Z,2.28
2023-01-25T10:56:57.147Z,2.70
2023-01-25T11:02:39.322Z,2.89
2023-01-25T11:07:40.865Z,2.59
2023-01-25T11:12:42.544Z,2.39
2023-01-25T11:17:44.089Z,2.30
2023-01-25T11:22:54.124Z,2.55
2023-01-25T11:28:25.615Z,2.71
2023-01-25T11:33:27.360Z,2.84
2023-01-25T11:38:29.451Z,2.64
2023-01-25T11:44:09.505Z,2.73
2023-01-25T11:49:16.966Z,2.65
2023-01-25T11:54:49.660Z,2.63
2023-01-25T12:00:17.161Z,2.64
2023-01-25T12:05:29.027Z,2.52
2023-01-25T12:11:12.164Z,2.48
2023-01-25T12:16:32.513Z,2.38
2023-01-25T12:22:00.397Z,2.56
2023-01-25T12:27:43.665Z,2.52
2023-01-25T12:33:08.944Z,2.58
2023-01-25T12:38:41.289Z,2.51
2023-01-25T12:43:52.551Z,2.42
2023-01-25T12:48:58.499Z,2.36
2023-01-25T12:54:06.136Z,2.36
2023-01-25T12:59:46.318Z,2.41
2023-01-25T13:05:16.159Z,2.35
2023-01-25T13:10:26.524Z,2.67
2023-01-25T13:15:40.100Z,2.57
2023-01-25T13:20:41.738Z,2.70
2023-01-25T13:25:43.484Z,2.51
2023-01-25T13:30:53.920Z,2.58
2023-01-25T13:35:55.546Z,2.65
2023-01-25T13:41:12.620Z,2.35
2023-01-25T13:46:18.248Z,2.30
2023-01-25T13:51:20.619Z,2.60
2023-01-25T13:56:32.303Z,2.32
2023-01-25T14:01:36.304Z,2.20
2023-01-25T14:06:40.227Z,2.21
2023-01-25T14:12:00.423Z,2.29
2023-01-25T14:17:10.478Z,2.55
2023-01-25T14:22:21.026Z,2.06
2023-01-25T14:27:22.900Z,2.28
2023-01-25T14:32:27.479Z,2.18
2023-01-25T14:37:29.126Z,2.36
2023-01-25T14:42:32.211Z,2.26
2023-01-25T14:47:33.792Z,2.34
2023-01-25T14:52:35.649Z,2.39
2023-01-25T14:57:40.374Z,2.26
2023-01-25T15:02:52.280Z,2.17
2023-01-25T15:07:56.170Z,2.38
2023-01-25T15:13:12.820Z,2.42
2023-01-25T15:18:41.188Z,2.38
2023-01-25T15:23:43.986Z,2.16
2023-01-25T15:28:46.608Z,2.46
2023-01-25T15:33:48.281Z,2.51
2023-01-25T15:38:50.449Z,2.38
2023-01-25T15:43:52.027Z,2.47
2023-01-25T15:48:54.987Z,2.38
2023-01-25T15:53:56.559Z,2.26
2023-01-25T15:59:00.981Z,2.33
2023-01-25T16:04:02.726Z,2.47
2023-01-25T16:09:18.795Z,2.44
2023-01-25T16:14:21.374Z,2.40
2023-01-25T16:19:24.131Z,2.39
2023-01-25T16:24:25.844Z,2.29
2023-01-25T16:29:29.004Z,2.36
2023-01-25T16:34:30.612Z,2.40
2023-01-25T16:39:32.464Z,2.41
2023-01-25T16:44:34.064Z,2.37
2023-01-25T16:49:35.617Z,2.38
2023-01-25T16:54:37.431Z,2.40
2023-01-25T16:59:39.049Z,2.34
2023-01-25T17:04:40.690Z,2.29
2023-01-25T17:09:42.238Z,2.24
2023-01-25T17:14:43.791Z,2.17
2023-01-25T17:19:45.637Z,2.29
2023-01-25T17:24:47.228Z,2.35
2023-01-25T17:29:48.915Z,2.22
2023-01-25T17:34:50.472Z,2.32
2023-01-25T17:39:52.058Z,2.31
2023-01-25T17:44:53.623Z,2.35
2023-01-25T17:49:55.178Z,2.33
2023-01-25T17:54:56.766Z,2.06
2023-01-25T17:59:58.366Z,2.02
2023-01-25T18:04:59.911Z,2.05
2023-01-25T18:10:01.529Z,1.92
2023-01-25T18:15:04.578Z,1.79
2023-01-25T18:20:06.774Z,1.74
2023-01-25T18:25:33.955Z,1.60
2023-01-25T18:30:50.973Z,1.61
2023-01-25T18:35:52.597Z,1.48
2023-01-25T18:40:54.115Z,1.39
2023-01-25T18:45:57.444Z,1.45
2023-01-25T18:51:13.518Z,1.50
2023-01-25T18:56:17.756Z,1.39
2023-01-25T19:01:21.318Z,1.35
2023-01-25T19:06:24.548Z,1.44
2023-01-25T19:11:26.084Z,1.29
2023-01-25T19:16:27.645Z,1.30
2023-01-25T19:21:29.154Z,1.44
2023-01-25T19:26:30.881Z,1.22
2023-01-25T19:31:33.358Z,1.15
2023-01-25T19:36:37.458Z,1.16
2023-01-25T19:41:39.114Z,1.09
2023-01-25T19:46:41.399Z,1.25
2023-01-25T19:51:44.252Z,1.47
2023-01-25T19:56:48.279Z,1.37
2023-01-25T20:01:50.458Z,1.41
2023-01-25T20:06:52.306Z,1.36
2023-01-25T20:11:57.098Z,1.39
2023-01-25T20:16:58.633Z,1.45
2023-01-25T20:22:00.600Z,1.27
2023-01-25T20:27:04.266Z,1.14
2023-01-25T20:32:06.184Z,1.15
2023-01-25T20:37:07.944Z,1.18
2023-01-25T20:42:09.562Z,1.18
2023-01-25T20:47:11.182Z,1.26
2023-01-25T20:52:12.858Z,1.25
2023-01-25T20:57:14.462Z,1.35
2023-01-25T21:02:16.054Z,1.40
2023-01-25T21:07:17.677Z,1.28
2023-01-25T21:12:19.249Z,1.42
2023-01-25T21:17:20.797Z,1.48
2023-01-25T21:22:22.421Z,1.43
2023-01-25T21:27:24.080Z,1.50
2023-01-25T21:32:25.739Z,1.56
2023-01-25T21:37:29.038Z,1.54
2023-01-25T21:42:32.399Z,1.53
2023-01-25T21:47:34.202Z,1.61
2023-01-25T21:52:36.427Z,1.52
2023-01-25T21:57:38.126Z,1.37
2023-01-25T22:02:39.820Z,1.37
2023-01-25T22:07:41.339Z,1.29
2023-01-25T22:12:42.891Z,1.26
2023-01-25T22:17:44.619Z,1.40
2023-01-25T22:22:46.174Z,1.57
2023-01-25T22:27:58.387Z,1.58
2023-01-25T22:32:59.994Z,1.59
2023-01-25T22:38:01.554Z,1.52
2023-01-25T22:43:03.095Z,1.48
2023-01-25T22:48:04.797Z,1.52
2023-01-25T22:53:06.381Z,1.42
2023-01-25T22:58:09.310Z,1.40
2023-01-25T23:03:11.052Z,1.30
2023-01-25T23:08:12.646Z,1.10
2023-01-25T23:13:14.450Z,1.21
2023-01-25T23:18:15.993Z,0.93
2023-01-25T23:23:17.582Z,0.97
2023-01-25T23:28:19.194Z,0.78
2023-01-25T23:33:20.755Z,0.96
2023-01-25T23:38:22.298Z,0.82
2023-01-25T23:43:23.866Z,0.95
2023-01-25T23:48:25.586Z,0.77
2023-01-25T23:53:27.467Z,0.72
2023-01-25T23:58:29.964Z,0.58
